Time;durP1;ratioP1;P1;durP2;ratioP2;P2;SDS_P1;SDS_P2;PMS_P1;PMS_P2;Temp;Humidity;BMP_temperature;BMP_pressure;BME280_temperature;BME280_humidity;BME280_pressure;Samples;Min_cycle;Max_cycle;Signal;HPM_P1;HPM_P2
2023/04/14 00:01:52;;;;;;;11.10;2.55;;;5.80;99.90;;;;;;5037455;28;20041;-73
2023/04/14 00:04:18;;;;;;;10.77;2.15;;;5.90;99.90;;;;;;5025569;28;20144;-73
2023/04/14 00:06:44;;;;;;;10.68;2.15;;;5.70;99.90;;;;;;5031242;28;20099;-72
2023/04/14 00:09:10;;;;;;;15.10;2.80;;;5.80;99.90;;;;;;5024673;28;20045;-72
2023/04/14 00:11:36;;;;;;;15.93;3.08;;;5.70;99.90;;;;;;5026287;28;20659;-72
2023/04/14 00:14:02;;;;;;;8.80;2.42;;;5.60;99.90;;;;;;5037946;28;20036;-72
2023/04/14 00:16:31;;;;;;;11.45;2.10;;;5.60;99.90;;;;;;5043787;28;20049;-72
2023/04/14 00:18:56;;;;;;;7.38;2.03;;;5.50;99.90;;;;;;5021160;28;20128;-71
2023/04/14 00:21:22;;;;;;;13.52;2.55;;;5.60;99.90;;;;;;5027503;28;20459;-72
2023/04/14 00:23:48;;;;;;;12.00;2.10;;;5.50;99.90;;;;;;5025546;28;20059;-72
2023/04/14 00:26:13;;;;;;;15.88;2.72;;;5.50;99.90;;;;;;5027165;28;20700;-73
2023/04/14 00:28:39;;;;;;;15.30;2.53;;;5.50;99.90;;;;;;5023826;28;20041;-71
2023/04/14 00:31:05;;;;;;;11.70;2.60;;;5.50;99.90;;;;;;5010261;28;20041;-72
2023/04/14 00:33:31;;;;;;;10.50;2.75;;;5.40;99.90;;;;;;5036351;28;20053;-72
2023/04/14 00:35:57;;;;;;;17.63;2.88;;;6.00;99.90;;;;;;5036818;28;20049;-72
2023/04/14 00:38:24;;;;;;;15.43;3.80;;;5.50;99.90;;;;;;5023170;28;20494;-72
2023/04/14 00:40:49;;;;;;;12.80;2.92;;;5.40;99.90;;;;;;5027351;28;20532;-72
2023/04/14 00:43:19;;;;;;;10.48;2.28;;;5.40;99.90;;;;;;5036417;28;20128;-72
2023/04/14 00:45:47;;;;;;;14.32;2.33;;;5.30;99.90;;;;;;5019602;28;20525;-72
2023/04/14 00:48:14;;;;;;;15.35;2.70;;;5.30;99.90;;;;;;5023282;28;21578;-72
2023/04/14 00:50:40;;;;;;;11.25;2.08;;;5.30;99.90;;;;;;5018767;28;20049;-72
2023/04/14 00:53:06;;;;;;;12.88;2.40;;;5.30;99.90;;;;;;5027038;28;20056;-72
2023/04/14 00:55:32;;;;;;;10.35;2.70;;;5.30;99.90;;;;;;5026227;28;20102;-72
2023/04/14 00:58:00;;;;;;;10.85;2.08;;;5.20;99.90;;;;;;5016043;28;20040;-72
2023/04/14 01:00:26;;;;;;;16.30;2.67;;;5.10;99.90;;;;;;5027977;28;20382;-72
2023/04/14 01:02:52;;;;;;;10.82;2.03;;;5.30;99.90;;;;;;5017516;28;20049;-72
2023/04/14 01:05:18;;;;;;;9.27;2.55;;;5.50;99.90;;;;;;5022094;28;20060;-72
2023/04/14 01:07:47;;;;;;;8.57;2.55;;;5.10;99.90;;;;;;5033139;28;20580;-73
2023/04/14 01:10:13;;;;;;;11.50;1.90;;;5.20;99.90;;;;;;5029288;28;20492;-73
2023/04/14 01:12:55;;;;;;;11.98;2.42;;;5.00;99.90;;;;;;5024986;28;20071;-72
2023/04/14 01:15:44;;;;;;;8.25;2.05;;;5.00;99.90;;;;;;5022183;28;20046;-73
2023/04/14 01:18:31;;;;;;;14.55;2.58;;;5.00;99.90;;;;;;5025425;28;20498;-72
2023/04/14 01:21:03;;;;;;;11.88;2.45;;;5.00;99.90;;;;;;5038980;28;20053;-72
2023/04/14 01:23:34;;;;;;;15.10;2.25;;;5.00;99.90;;;;;;5029681;28;20879;-72
2023/04/14 01:26:29;;;;;;;10.98;2.08;;;5.00;99.90;;;;;;5027661;28;20132;-72
2023/04/14 01:29:43;;;;;;;13.50;2.60;;;4.90;99.90;;;;;;5005286;28;20049;-72
2023/04/14 01:32:10;;;;;;;12.73;2.53;;;4.90;99.90;;;;;;4999272;28;20710;-72
2023/04/14 01:34:48;;;;;;;14.45;2.17;;;4.90;99.90;;;;;;5032734;28;20102;-72
2023/04/14 01:37:19;;;;;;;7.50;2.65;;;4.90;99.90;;;;;;5035069;28;20148;-72
2023/04/14 01:39:50;;;;;;;13.55;2.70;;;4.80;99.90;;;;;;5042743;28;20048;-72
2023/04/14 01:42:22;;;;;;;13.43;2.72;;;4.80;99.90;;;;;;5032147;28;20041;-72
2023/04/14 01:44:51;;;;;;;;;;;5.00;99.90;;;;;;5031371;28;20449;-72
2023/04/14 01:47:19;;;;;;;15.57;2.80;;;4.80;99.90;;;;;;5019472;28;19929;-71
2023/04/14 01:49:46;;;;;;;13.18;2.58;;;4.80;99.90;;;;;;5039946;28;20139;-71
2023/04/14 01:52:14;;;;;;;10.93;2.67;;;4.70;99.90;;;;;;5034840;28;20132;-73
2023/04/14 01:54:42;;;;;;;10.18;2.45;;;4.70;99.90;;;;;;5034769;28;20742;-72
2023/04/14 01:57:11;;;;;;;14.27;2.50;;;4.70;99.90;;;;;;5023966;28;20044;-72
2023/04/14 01:59:40;;;;;;;9.02;2.33;;;4.70;99.90;;;;;;5037008;28;20464;-72
2023/04/14 02:02:08;;;;;;;15.77;2.42;;;4.70;99.90;;;;;;5025270;28;20458;-73
2023/04/14 02:04:35;;;;;;;11.00;1.95;;;4.60;99.90;;;;;;5014871;28;20037;-72
2023/04/14 02:07:03;;;;;;;12.07;2.33;;;4.60;99.90;;;;;;5027764;28;20554;-71
2023/04/14 02:09:31;;;;;;;13.27;2.40;;;4.60;99.90;;;;;;5027093;28;20498;-73
2023/04/14 02:11:59;;;;;;;9.70;2.38;;;4.60;99.90;;;;;;5031731;28;20052;-72
2023/04/14 02:14:26;;;;;;;10.98;2.22;;;4.70;99.90;;;;;;5036139;28;20130;-72
2023/04/14 02:16:53;;;;;;;10.38;2.58;;;4.70;99.90;;;;;;5041396;28;20041;-72
2023/04/14 02:19:20;;;;;;;10.77;2.53;;;4.60;99.90;;;;;;5041260;28;20067;-72
2023/04/14 02:21:51;;;;;;;9.95;2.40;;;4.60;99.90;;;;;;5036631;28;20073;-72
2023/04/14 02:24:18;;;;;;;8.88;2.15;;;4.60;99.90;;;;;;5028342;28;20038;-72
2023/04/14 02:27:15;;;;;;;9.05;2.30;;;4.50;99.90;;;;;;5026317;28;20131;-72
2023/04/14 02:29:44;;;;;;;12.43;2.42;;;4.50;99.90;;;;;;5018571;28;20041;-72
2023/04/14 02:32:18;;;;;;;7.35;2.22;;;4.50;99.90;;;;;;5035573;28;20045;-72
2023/04/14 02:34:51;;;;;;;9.38;2.28;;;4.50;99.90;;;;;;5006921;28;20090;-72
2023/04/14 02:37:22;;;;;;;12.40;2.55;;;4.50;99.90;;;;;;5018129;28;20045;-72
2023/04/14 02:39:54;;;;;;;7.83;2.27;;;4.60;99.90;;;;;;5038433;28;20128;-72
2023/04/14 02:42:25;;;;;;;8.77;2.35;;;4.50;99.90;;;;;;5033825;28;20068;-72
2023/04/14 02:44:59;;;;;;;9.63;2.33;;;4.70;99.90;;;;;;5015571;28;20354;-72
2023/04/14 02:47:47;;;;;;;10.63;3.33;;;4.40;99.90;;;;;;5028606;28;20049;-72
2023/04/14 02:50:15;;;;;;;13.85;2.30;;;4.40;99.90;;;;;;5041663;28;20417;-71
2023/04/14 02:52:42;;;;;;;8.45;2.28;;;4.40;99.90;;;;;;5038332;28;20059;-72
2023/04/14 02:55:10;;;;;;;12.25;2.75;;;4.40;99.90;;;;;;5009271;28;20057;-73
2023/04/14 02:57:37;;;;;;;11.02;2.92;;;4.50;99.90;;;;;;5034105;28;20132;-72
2023/04/14 03:00:04;;;;;;;7.95;2.10;;;4.30;99.90;;;;;;5029173;28;20083;-72
2023/04/14 03:02:31;;;;;;;8.52;2.22;;;4.30;99.90;;;;;;5020826;28;20134;-72
2023/04/14 03:04:58;;;;;;;11.63;2.08;;;4.30;99.90;;;;;;5035734;28;20049;-72
2023/04/14 03:07:26;;;;;;;14.52;2.28;;;4.30;99.90;;;;;;5008276;28;20051;-72
2023/04/14 03:09:53;;;;;;;12.95;2.33;;;4.30;99.90;;;;;;5025316;28;20056;-72
2023/04/14 03:12:20;;;;;;;6.50;2.30;;;4.30;99.90;;;;;;5018797;28;20055;-71
2023/04/14 03:14:47;;;;;;;10.50;2.67;;;4.30;99.90;;;;;;5028671;28;20033;-72
2023/04/14 03:17:16;;;;;;;7.63;1.90;;;4.30;99.90;;;;;;5032321;28;20032;-72
2023/04/14 03:19:45;;;;;;;12.35;2.63;;;4.30;99.90;;;;;;5012499;28;20453;-72
2023/04/14 03:22:14;;;;;;;11.30;2.10;;;4.30;99.90;;;;;;5032334;28;20437;-72
2023/04/14 03:24:41;;;;;;;13.38;2.15;;;4.30;99.90;;;;;;5032174;28;20076;-72
2023/04/14 03:27:10;;;;;;;14.48;2.38;;;4.20;99.90;;;;;;5035182;28;20136;-72
2023/04/14 03:29:43;;;;;;;6.88;1.95;;;4.30;99.90;;;;;;5024112;28;20049;-72
2023/04/14 03:32:10;;;;;;;14.57;2.38;;;4.30;99.90;;;;;;5040848;28;20130;-72
2023/04/14 03:34:45;;;;;;;12.13;2.05;;;4.20;99.90;;;;;;5027049;28;20042;-71
2023/04/14 03:37:15;;;;;;;10.00;1.98;;;4.20;99.90;;;;;;5043662;28;20045;-72
2023/04/14 03:39:42;;;;;;;11.07;2.83;;;4.20;99.90;;;;;;5045866;28;20041;-71
2023/04/14 03:42:12;;;;;;;14.57;2.33;;;4.30;99.90;;;;;;5048282;28;20052;-72
2023/04/14 03:44:41;;;;;;;9.82;2.25;;;4.30;99.90;;;;;;5046962;28;20409;-71
2023/04/14 03:47:09;;;;;;;9.77;1.77;;;4.20;99.90;;;;;;5040939;28;20052;-71
2023/04/14 03:49:38;;;;;;;14.88;2.97;;;4.20;99.90;;;;;;5051438;28;20144;-73
2023/04/14 03:52:06;;;;;;;8.05;2.10;;;4.20;99.90;;;;;;5047869;28;20066;-72
2023/04/14 03:54:34;;;;;;;7.15;2.03;;;4.20;99.90;;;;;;5049248;28;20120;-73
2023/04/14 03:57:05;;;;;;;8.38;2.33;;;4.20;99.90;;;;;;5039960;28;20497;-72
2023/04/14 03:59:32;;;;;;;10.77;2.10;;;4.20;99.90;;;;;;5032806;28;20044;-72
2023/04/14 04:01:59;;;;;;;9.88;1.90;;;4.20;99.90;;;;;;5046267;28;20106;-70
2023/04/14 04:04:25;;;;;;;8.73;1.92;;;4.10;99.90;;;;;;5037980;28;20551;-70
2023/04/14 04:06:52;;;;;;;9.32;1.95;;;4.30;99.90;;;;;;5043648;28;20055;-70
2023/04/14 04:09:19;;;;;;;10.00;2.25;;;4.10;99.90;;;;;;5052423;28;20044;-70
2023/04/14 04:11:47;;;;;;;9.75;2.03;;;4.30;99.90;;;;;;5046765;28;20497;-70
2023/04/14 04:14:14;;;;;;;8.85;2.22;;;4.40;99.90;;;;;;5043809;28;20745;-70
2023/04/14 04:16:42;;;;;;;10.40;2.33;;;4.10;99.90;;;;;;5046512;28;20036;-70
2023/04/14 04:19:09;;;;;;;12.00;2.22;;;4.10;99.90;;;;;;5044871;28;20386;-70
2023/04/14 04:21:41;;;;;;;21.88;3.05;;;4.10;99.90;;;;;;5044996;28;20041;-70
2023/04/14 04:24:09;;;;;;;13.30;1.88;;;4.10;99.90;;;;;;5048052;28;20057;-70
2023/04/14 04:26:34;;;;;;;14.13;2.28;;;4.00;99.90;;;;;;5038126;28;20084;-70
2023/04/14 04:29:02;;;;;;;12.60;2.20;;;4.00;99.90;;;;;;5046441;28;20076;-70
2023/04/14 04:31:29;;;;;;;7.63;2.40;;;4.00;99.90;;;;;;5042766;28;20455;-70
2023/04/14 04:33:57;;;;;;;7.55;1.73;;;4.10;99.90;;;;;;5033471;28;20072;-70
2023/04/14 04:36:25;;;;;;;11.23;2.55;;;4.00;99.90;;;;;;5048725;28;20378;-70
2023/04/14 04:38:50;;;;;;;12.13;2.45;;;3.90;99.90;;;;;;5044862;28;20444;-70
2023/04/14 04:41:25;;;;;;;15.70;2.35;;;3.90;99.90;;;;;;5046426;28;20044;-70
2023/04/14 04:43:50;;;;;;;9.88;2.00;;;3.90;99.90;;;;;;5048629;28;20037;-70
2023/04/14 04:46:22;;;;;;;12.60;2.53;;;3.90;99.90;;;;;;5048621;28;20055;-70
2023/04/14 04:48:52;;;;;;;9.15;2.10;;;3.90;99.90;;;;;;5033391;28;20045;-70
2023/04/14 04:51:18;;;;;;;10.77;2.20;;;3.80;99.90;;;;;;5047963;28;20119;-70
2023/04/14 04:53:44;;;;;;;12.88;2.70;;;3.80;99.90;;;;;;5035633;28;20143;-70
2023/04/14 04:56:10;;;;;;;12.02;2.53;;;3.80;99.90;;;;;;5022369;28;20037;-70
2023/04/14 04:58:36;;;;;;;11.40;2.80;;;3.80;99.90;;;;;;5040331;28;20480;-69
2023/04/14 05:01:08;;;;;;;9.13;2.20;;;3.80;99.90;;;;;;5038951;28;20095;-70
2023/04/14 05:03:34;;;;;;;7.25;2.83;;;3.80;99.90;;;;;;5024705;28;20044;-69
2023/04/14 05:06:00;;;;;;;15.40;2.30;;;3.80;99.90;;;;;;5041493;28;20664;-70
2023/04/14 05:08:26;;;;;;;11.75;2.60;;;3.60;99.90;;;;;;5041317;28;20041;-69
2023/04/14 05:10:52;;;;;;;10.73;2.40;;;3.80;99.90;;;;;;5040364;28;20037;-69
2023/04/14 05:13:18;;;;;;;6.85;2.30;;;3.80;99.90;;;;;;5023704;28;20077;-69
2023/04/14 05:15:43;;;;;;;12.07;2.97;;;3.80;99.90;;;;;;5021985;28;20144;-69
2023/04/14 05:18:09;;;;;;;13.50;3.25;;;3.80;99.90;;;;;;5040983;28;20468;-69
2023/04/14 05:20:35;;;;;;;9.00;2.75;;;3.80;99.90;;;;;;5039177;28;20064;-69
2023/04/14 05:23:01;;;;;;;12.32;2.30;;;3.90;99.90;;;;;;5008640;28;20079;-69
2023/04/14 05:25:27;;;;;;;9.35;2.50;;;3.90;99.90;;;;;;5015199;28;20048;-70
2023/04/14 05:27:52;;;;;;;10.23;2.50;;;3.90;99.90;;;;;;5012687;28;20122;-70
2023/04/14 05:30:18;;;;;;;16.25;3.17;;;4.20;99.90;;;;;;5009457;28;20072;-69
2023/04/14 05:32:44;;;;;;;10.15;2.08;;;3.90;99.90;;;;;;5008435;28;20521;-69
2023/04/14 05:35:10;;;;;;;8.13;2.10;;;3.90;99.90;;;;;;4995180;28;20084;-70
2023/04/14 05:37:36;;;;;;;11.50;2.80;;;4.00;99.90;;;;;;5025065;28;20041;-70
2023/04/14 05:40:02;;;;;;;7.57;2.25;;;4.00;99.90;;;;;;5024575;28;20057;-70
2023/04/14 05:42:28;;;;;;;12.70;2.70;;;3.90;99.90;;;;;;5007988;28;20045;-72
2023/04/14 05:44:53;;;;;;;13.30;2.85;;;4.00;99.90;;;;;;5012600;28;20052;-72
2023/04/14 05:47:19;;;;;;;9.32;2.50;;;4.00;99.90;;;;;;4993516;28;20055;-72
2023/04/14 05:49:45;;;;;;;10.23;2.38;;;4.10;99.90;;;;;;5026769;28;20045;-72
2023/04/14 05:52:11;;;;;;;10.98;2.25;;;4.10;99.90;;;;;;5009312;28;20995;-72
2023/04/14 05:54:36;;;;;;;11.15;2.63;;;4.20;99.90;;;;;;4992702;28;20049;-72
2023/04/14 05:57:02;;;;;;;8.50;2.85;;;4.30;99.90;;;;;;5025711;28;20453;-72
2023/04/14 05:59:28;;;;;;;9.38;2.70;;;4.30;99.90;;;;;;5028230;28;20057;-72
2023/04/14 06:01:53;;;;;;;11.25;2.78;;;4.50;99.90;;;;;;5024927;28;20049;-72
2023/04/14 06:04:19;;;;;;;7.40;2.30;;;4.60;99.90;;;;;;5023440;28;20076;-72
2023/04/14 06:06:45;;;;;;;8.48;2.20;;;4.70;99.90;;;;;;5008306;28;20181;-73
2023/04/14 06:09:11;;;;;;;7.60;2.50;;;4.80;99.90;;;;;;5009035;28;20045;-72
2023/04/14 06:11:38;;;;;;;11.68;2.10;;;4.80;99.90;;;;;;5017601;28;20552;-73
2023/04/14 06:14:06;;;;;;;9.80;2.35;;;4.80;99.90;;;;;;5033076;28;20045;-72
2023/04/14 06:16:32;;;;;;;9.40;2.13;;;5.00;99.90;;;;;;5018276;28;20053;-72
2023/04/14 06:18:57;;;;;;;15.40;2.63;;;4.90;99.90;;;;;;5019445;28;20049;-72
2023/04/14 06:21:23;;;;;;;13.80;3.10;;;5.00;99.90;;;;;;5020004;28;20052;-73
2023/04/14 06:23:49;;;;;;;9.73;2.83;;;5.10;99.90;;;;;;5036917;28;20049;-73
2023/04/14 06:26:15;;;;;;;10.65;2.67;;;5.30;99.90;;;;;;5043315;28;20075;-73
2023/04/14 06:28:40;;;;;;;7.70;2.13;;;5.70;99.90;;;;;;5034802;28;20597;-73
2023/04/14 06:31:06;;;;;;;10.80;2.85;;;6.00;99.90;;;;;;5019744;28;20055;-73
2023/04/14 06:33:32;;;;;;;12.60;2.38;;;6.40;99.90;;;;;;5037038;28;20033;-73
2023/04/14 06:35:58;;;;;;;7.18;2.05;;;6.70;99.90;;;;;;5041389;28;20041;-73
2023/04/14 06:38:24;;;;;;;9.07;2.20;;;6.90;99.90;;;;;;5044788;28;20044;-74
2023/04/14 06:40:50;;;;;;;7.85;1.95;;;7.10;99.90;;;;;;5025485;28;20052;-74
2023/04/14 06:43:16;;;;;;;7.05;1.83;;;7.30;99.90;;;;;;5028492;28;20049;-74
2023/04/14 06:45:42;;;;;;;10.55;2.10;;;7.40;99.90;;;;;;5023562;28;20052;-73
2023/04/14 06:48:10;;;;;;;8.60;2.20;;;7.50;99.90;;;;;;5026302;28;20120;-73
2023/04/14 06:50:35;;;;;;;9.48;2.08;;;7.60;99.90;;;;;;5009558;28;20081;-74
2023/04/14 06:53:01;;;;;;;9.82;2.17;;;7.70;99.90;;;;;;5044367;28;20089;-73
2023/04/14 06:55:27;;;;;;;12.45;2.35;;;7.70;99.90;;;;;;5026296;28;20056;-73
2023/04/14 06:57:53;;;;;;;8.73;2.22;;;7.80;99.90;;;;;;5044412;28;20504;-74
2023/04/14 07:00:19;;;;;;;10.55;2.15;;;7.80;99.90;;;;;;5041923;28;20083;-73
2023/04/14 07:02:44;;;;;;;7.85;2.65;;;7.90;99.90;;;;;;5025264;28;20482;-73
2023/04/14 07:05:10;;;;;;;6.03;1.75;;;8.00;99.90;;;;;;5039200;28;20040;-73
2023/04/14 07:07:38;;;;;;;10.10;2.25;;;8.00;99.90;;;;;;5021370;28;20049;-73
2023/04/14 07:10:05;;;;;;;7.25;2.25;;;8.10;99.90;;;;;;5023707;28;20037;-73
2023/04/14 07:12:31;;;;;;;6.50;1.90;;;8.10;99.90;;;;;;5023937;28;20547;-73
2023/04/14 07:14:57;;;;;;;11.18;2.05;;;8.20;99.90;;;;;;5018528;28;20053;-74
2023/04/14 07:17:23;;;;;;;9.35;2.53;;;8.40;99.90;;;;;;5018571;28;20056;-74
2023/04/14 07:19:49;;;;;;;10.30;2.13;;;8.50;99.90;;;;;;5002404;28;20051;-74
2023/04/14 07:22:15;;;;;;;10.73;2.20;;;8.70;99.90;;;;;;5007307;28;20045;-73
2023/04/14 07:24:41;;;;;;;8.38;2.15;;;8.90;99.90;;;;;;5024846;28;20422;-73
2023/04/14 07:27:13;;;;;;;10.55;2.10;;;9.00;99.90;;;;;;5041693;28;20048;-73
2023/04/14 07:29:40;;;;;;;12.00;2.03;;;9.20;99.90;;;;;;5025204;28;20044;-73
2023/04/14 07:32:06;;;;;;;10.80;1.98;;;9.30;99.90;;;;;;5026090;28;20144;-73
2023/04/14 07:34:32;;;;;;;10.68;2.00;;;9.50;99.90;;;;;;5036471;28;20494;-73
2023/04/14 07:36:57;;;;;;;9.57;2.33;;;9.60;99.90;;;;;;5022463;28;20182;-73
2023/04/14 07:39:23;;;;;;;12.65;2.30;;;9.80;99.90;;;;;;5007544;28;20033;-73
2023/04/14 07:41:49;;;;;;;8.35;2.13;;;9.80;99.90;;;;;;5026408;28;20505;-73
2023/04/14 07:44:15;;;;;;;7.18;2.13;;;10.00;99.90;;;;;;5039273;28;20044;-73
2023/04/14 07:46:41;;;;;;;7.63;2.20;;;10.30;99.90;;;;;;5006606;28;20159;-73
2023/04/14 07:49:07;;;;;;;12.75;2.35;;;10.10;99.90;;;;;;5038278;28;20056;-73
2023/04/14 07:51:32;;;;;;;12.10;2.50;;;10.20;99.90;;;;;;5034336;28;20114;-74
2023/04/14 07:53:58;;;;;;;8.60;2.05;;;10.20;99.90;;;;;;5019673;28;20080;-73
2023/04/14 07:56:24;;;;;;;11.15;2.10;;;10.30;99.90;;;;;;5034339;28;20051;-73
2023/04/14 07:58:50;;;;;;;8.82;1.85;;;10.40;99.90;;;;;;5039703;28;20069;-74
2023/04/14 08:01:16;;;;;;;9.38;2.03;;;10.50;99.90;;;;;;5025619;28;20048;-74
2023/04/14 08:03:42;;;;;;;10.05;2.00;;;10.50;99.90;;;;;;5024473;28;20045;-74
2023/04/14 08:06:08;;;;;;;9.23;2.25;;;10.60;99.90;;;;;;5023868;28;20063;-74
2023/04/14 08:08:34;;;;;;;11.60;2.30;;;10.70;99.90;;;;;;5028632;28;20485;-74
2023/04/14 08:11:00;;;;;;;9.07;2.05;;;10.80;99.90;;;;;;5009681;28;20482;-74
2023/04/14 08:13:29;;;;;;;9.77;2.20;;;10.80;99.90;;;;;;5030680;28;20578;-74
2023/04/14 08:15:54;;;;;;;11.48;2.10;;;11.10;99.90;;;;;;5025519;28;20052;-73
2023/04/14 08:18:20;;;;;;;8.18;1.77;;;11.00;99.90;;;;;;5025672;28;20131;-73
2023/04/14 08:20:46;;;;;;;19.40;2.60;;;11.10;99.90;;;;;;5024087;28;20083;-74
2023/04/14 08:23:12;;;;;;;11.88;2.20;;;11.10;99.90;;;;;;5038894;28;20041;-74
2023/04/14 08:25:38;;;;;;;11.82;1.90;;;11.20;99.90;;;;;;5041520;28;20033;-74
2023/04/14 08:28:03;;;;;;;11.27;2.22;;;11.20;99.90;;;;;;5041654;28;20041;-75
2023/04/14 08:30:29;;;;;;;12.23;2.50;;;11.30;99.90;;;;;;5020404;28;20064;-74
2023/04/14 08:32:55;;;;;;;6.70;1.67;;;11.60;99.90;;;;;;5011813;28;20048;-74
2023/04/14 08:35:24;;;;;;;11.07;2.10;;;11.50;99.90;;;;;;5025300;28;20049;-73
2023/04/14 08:37:49;;;;;;;12.18;2.28;;;11.60;99.90;;;;;;5013369;28;20064;-74
2023/04/14 08:40:18;;;;;;;8.23;1.80;;;11.60;99.90;;;;;;4994812;28;20057;-74
2023/04/14 08:42:44;;;;;;;10.15;1.83;;;11.70;99.90;;;;;;5025540;28;20584;-73
2023/04/14 08:45:11;;;;;;;8.88;2.30;;;11.70;99.90;;;;;;5010496;28;20049;-73
2023/04/14 08:47:39;;;;;;;9.63;2.35;;;11.70;99.90;;;;;;5029811;28;20727;-74
2023/04/14 08:50:09;;;;;;;10.13;2.15;;;11.80;99.90;;;;;;5006750;28;20535;-74
2023/04/14 08:52:35;;;;;;;10.50;2.00;;;11.90;99.90;;;;;;5025431;28;20049;-73
2023/04/14 08:55:03;;;;;;;9.25;1.80;;;11.90;99.90;;;;;;5023265;28;20139;-74
2023/04/14 08:57:33;;;;;;;10.77;1.70;;;12.00;99.90;;;;;;5005806;28;20132;-73
2023/04/14 09:00:03;;;;;;;9.80;1.98;;;12.10;99.90;;;;;;5023799;28;20437;-74
2023/04/14 09:02:31;;;;;;;8.18;2.25;;;12.10;99.90;;;;;;5041561;28;20690;-74
2023/04/14 09:04:58;;;;;;;11.05;2.30;;;12.20;99.90;;;;;;5024232;28;20080;-74
2023/04/14 09:07:24;;;;;;;12.57;2.72;;;12.40;99.90;;;;;;5021371;28;20037;-74
2023/04/14 09:09:51;;;;;;;9.10;2.25;;;12.40;99.90;;;;;;5022360;28;20056;-74
2023/04/14 09:12:16;;;;;;;10.00;1.60;;;12.50;99.90;;;;;;5038320;28;20041;-74
2023/04/14 09:14:45;;;;;;;10.68;2.22;;;12.50;99.90;;;;;;5037574;28;20132;-74
2023/04/14 09:17:11;;;;;;;9.85;1.90;;;12.60;99.90;;;;;;5025093;28;20045;-74
2023/04/14 09:19:37;;;;;;;9.70;1.77;;;12.70;99.90;;;;;;5037273;28;20045;-73
2023/04/14 09:22:03;;;;;;;8.90;2.17;;;12.70;99.90;;;;;;5026360;28;20057;-74
2023/04/14 09:24:32;;;;;;;11.20;2.20;;;12.70;99.90;;;;;;5038156;28;20048;-74
2023/04/14 09:27:06;;;;;;;13.00;2.05;;;12.70;99.90;;;;;;5009597;28;20044;-74
2023/04/14 09:29:32;;;;;;;10.77;2.05;;;12.70;99.90;;;;;;5025406;28;20049;-74
2023/04/14 09:31:58;;;;;;;8.90;1.80;;;12.70;99.90;;;;;;5025670;28;20047;-74
2023/04/14 09:34:24;;;;;;;9.02;1.70;;;12.60;99.90;;;;;;5023954;28;20049;-74
2023/04/14 09:37:05;;;;;;;11.90;1.88;;;12.60;99.90;;;;;;5041120;28;20041;-74
2023/04/14 09:39:35;;;;;;;13.55;2.50;;;12.70;99.90;;;;;;5025604;28;20067;-74
2023/04/14 09:42:02;;;;;;;11.60;1.77;;;12.80;99.90;;;;;;5025808;28;20045;-75
2023/04/14 09:44:29;;;;;;;11.57;2.30;;;12.60;99.90;;;;;;5008355;28;20131;-74
2023/04/14 09:46:56;;;;;;;10.70;1.90;;;12.70;99.90;;;;;;5026398;28;20056;-75
2023/04/14 09:49:22;;;;;;;10.57;2.05;;;12.70;99.90;;;;;;5024083;28;20500;-74
2023/04/14 09:51:48;;;;;;;11.43;1.90;;;12.80;99.90;;;;;;4997541;28;20053;-75
2023/04/14 09:54:24;;;;;;;11.75;1.98;;;12.80;99.90;;;;;;5015978;28;20040;-74
2023/04/14 09:56:54;;;;;;;11.02;1.98;;;12.80;99.90;;;;;;5011121;28;20045;-75
2023/04/14 09:59:34;;;;;;;10.30;2.10;;;12.80;99.90;;;;;;5044278;28;20051;-74
2023/04/14 10:02:04;;;;;;;9.73;1.60;;;12.80;99.90;;;;;;5030765;28;20124;-74
2023/04/14 10:04:30;;;;;;;13.38;2.05;;;12.70;99.90;;;;;;5029170;28;20045;-74
2023/04/14 10:06:59;;;;;;;9.13;2.10;;;12.70;99.90;;;;;;5015217;28;20608;-74
2023/04/14 10:09:28;;;;;;;15.00;2.72;;;12.70;99.90;;;;;;5047261;28;20049;-75
2023/04/14 10:12:14;;;;;;;12.25;1.73;;;12.60;99.90;;;;;;5033307;28;20106;-73
2023/04/14 10:14:42;;;;;;;8.55;2.03;;;12.60;99.90;;;;;;5049380;28;20049;-75
2023/04/14 10:17:08;;;;;;;10.32;2.22;;;12.60;99.90;;;;;;5052235;28;20098;-75
2023/04/14 10:19:35;;;;;;;12.57;2.08;;;12.70;99.90;;;;;;5028175;28;20045;-75
2023/04/14 10:22:08;;;;;;;11.15;2.05;;;12.80;99.90;;;;;;5041851;28;20044;-76
2023/04/14 10:24:34;;;;;;;9.65;2.08;;;12.80;99.90;;;;;;5043079;28;20040;-74
2023/04/14 10:27:03;;;;;;;9.63;2.03;;;12.90;99.90;;;;;;5046517;28;20053;-74
2023/04/14 10:29:30;;;;;;;11.05;2.15;;;13.00;99.90;;;;;;5019729;28;20068;-74
2023/04/14 10:32:12;;;;;;;13.05;2.10;;;13.00;99.90;;;;;;5045655;28;20118;-74
2023/04/14 10:34:52;;;;;;;10.85;2.40;;;13.10;99.90;;;;;;5003363;28;20052;-74
2023/04/14 10:37:17;;;;;;;9.40;1.95;;;13.10;99.90;;;;;;5043618;28;20128;-74
2023/04/14 10:39:57;;;;;;;14.57;1.60;;;13.10;99.90;;;;;;5002083;28;20050;-75
2023/04/14 10:42:23;;;;;;;9.82;1.60;;;13.00;99.90;;;;;;5011029;28;20123;-75
2023/04/14 10:45:06;;;;;;;12.95;2.00;;;13.00;99.90;;;;;;5019233;28;20505;-75
2023/04/14 10:47:34;;;;;;;7.70;1.77;;;13.00;99.90;;;;;;5019137;28;20052;-74
2023/04/14 10:50:14;;;;;;;10.32;1.60;;;13.00;99.90;;;;;;5027345;28;20041;-74
2023/04/14 10:52:57;;;;;;;10.13;1.65;;;13.00;99.90;;;;;;5016528;28;20056;-74
2023/04/14 10:55:26;;;;;;;10.32;2.00;;;13.00;99.90;;;;;;5030009;28;20057;-75
2023/04/14 10:58:03;;;;;;;11.93;2.72;;;13.00;99.90;;;;;;5012380;28;20048;-75
2023/04/14 11:00:32;;;;;;;9.27;1.95;;;13.00;99.90;;;;;;5014148;28;20157;-74
2023/04/14 11:03:04;;;;;;;10.98;2.53;;;13.00;99.90;;;;;;5021028;28;20095;-74
2023/04/14 11:05:34;;;;;;;16.17;2.13;;;13.00;99.90;;;;;;5016207;28;20320;-74
2023/04/14 11:08:10;;;;;;;11.00;2.17;;;12.90;99.90;;;;;;5034648;28;20135;-74
2023/04/14 11:10:36;;;;;;;11.98;1.92;;;12.90;99.90;;;;;;5044816;28;20036;-75
2023/04/14 11:13:05;;;;;;;10.48;1.88;;;12.80;99.90;;;;;;5025484;28;20055;-75
2023/04/14 11:15:44;;;;;;;11.13;1.92;;;12.80;99.90;;;;;;5039836;28;20049;-75
2023/04/14 11:18:15;;;;;;;9.68;2.15;;;12.90;99.90;;;;;;5043068;28;20135;-74
2023/04/14 11:20:44;;;;;;;10.50;1.90;;;13.00;99.90;;;;;;5042493;28;20784;-75
2023/04/14 11:23:12;;;;;;;8.75;1.75;;;13.10;99.90;;;;;;5031920;28;20037;-75
2023/04/14 11:25:39;;;;;;;13.23;1.98;;;13.20;99.90;;;;;;5011172;28;20047;-75
2023/04/14 11:28:05;;;;;;;10.80;1.92;;;13.40;99.90;;;;;;5025098;28;20618;-74
2023/04/14 11:30:34;;;;;;;9.82;1.90;;;13.50;99.90;;;;;;5041086;28;20509;-75
2023/04/14 11:32:59;;;;;;;10.52;1.63;;;13.50;99.90;;;;;;5044141;28;20052;-75
2023/04/14 11:35:26;;;;;;;12.10;2.00;;;13.60;99.90;;;;;;5028557;28;20689;-75
2023/04/14 11:37:56;;;;;;;9.27;1.80;;;13.70;99.90;;;;;;5029075;28;20052;-75
2023/04/14 11:40:24;;;;;;;8.82;1.73;;;13.70;99.90;;;;;;5014950;28;20049;-75
2023/04/14 11:42:52;;;;;;;9.45;1.70;;;13.80;99.90;;;;;;5022263;28;20059;-75
2023/04/14 11:45:18;;;;;;;10.73;2.42;;;13.80;99.90;;;;;;5028464;28;20383;-75
2023/04/14 11:47:59;;;;;;;6.35;1.42;;;13.80;99.90;;;;;;5025549;28;21026;-75
2023/04/14 11:50:26;;;;;;;7.75;1.60;;;13.70;99.90;;;;;;5031351;28;20037;-75
2023/04/14 11:52:54;;;;;;;9.38;2.10;;;13.70;99.90;;;;;;5037418;28;20131;-75
2023/04/14 11:55:22;;;;;;;7.82;1.65;;;13.80;99.90;;;;;;5032965;28;20823;-75
2023/04/14 11:57:48;;;;;;;11.68;1.50;;;13.90;99.90;;;;;;5029026;28;20064;-75
2023/04/14 12:00:14;;;;;;;15.30;2.35;;;13.90;99.90;;;;;;5048793;28;20051;-75
2023/04/14 12:02:44;;;;;;;8.90;2.00;;;14.00;99.90;;;;;;5042570;28;20651;-75
2023/04/14 12:05:10;;;;;;;7.28;1.65;;;14.10;99.90;;;;;;5030212;28;20076;-76
2023/04/14 12:07:37;;;;;;;9.48;1.90;;;14.20;99.90;;;;;;5031306;28;20059;-76
2023/04/14 12:10:04;;;;;;;6.60;1.67;;;14.40;99.90;;;;;;5032942;28;20128;-75
2023/04/14 12:12:32;;;;;;;7.45;1.88;;;14.40;99.90;;;;;;5009374;28;20491;-75
2023/04/14 12:14:58;;;;;;;9.50;1.95;;;14.60;99.90;;;;;;5044037;28;20049;-76
2023/04/14 12:17:24;;;;;;;11.02;2.00;;;14.70;99.90;;;;;;5023746;28;20553;-76
2023/04/14 12:19:50;;;;;;;7.45;1.83;;;14.80;99.90;;;;;;5041389;28;20114;-76
2023/04/14 12:22:29;;;;;;;9.23;1.85;;;14.80;99.90;;;;;;5025707;28;20497;-77
2023/04/14 12:24:56;;;;;;;8.02;1.73;;;14.80;99.90;;;;;;5041798;28;20053;-77
2023/04/14 12:27:23;;;;;;;10.70;1.95;;;14.80;99.90;;;;;;5041264;28;20857;-76
2023/04/14 12:29:49;;;;;;;7.18;1.77;;;14.80;99.90;;;;;;5023169;28;20098;-77
2023/04/14 12:32:16;;;;;;;9.07;1.73;;;14.80;99.90;;;;;;5031297;28;20040;-76
2023/04/14 12:35:00;;;;;;;8.38;1.45;;;14.80;99.90;;;;;;5043136;28;20049;-75
2023/04/14 12:37:27;;;;;;;8.15;1.88;;;14.80;99.90;;;;;;5060850;28;20044;-76
2023/04/14 12:39:59;;;;;;;8.15;1.75;;;14.90;99.20;;;;;;5028382;28;20168;-75
2023/04/14 12:42:26;;;;;;;8.23;1.90;;;15.00;99.60;;;;;;5018046;28;20572;-74
2023/04/14 12:45:00;;;;;;;10.23;1.85;;;15.00;99.30;;;;;;5012123;28;20075;-74
2023/04/14 12:47:30;;;;;;;9.75;1.63;;;14.90;98.10;;;;;;5018251;28;20155;-75
2023/04/14 12:49:57;;;;;;;6.35;1.55;;;14.80;96.60;;;;;;5018298;28;20064;-75
2023/04/14 12:52:41;;;;;;;9.35;1.55;;;14.70;98.10;;;;;;5000815;28;20088;-76
2023/04/14 12:55:19;;;;;;;10.07;1.80;;;14.70;97.20;;;;;;5019857;28;20045;-71